sensor_id;sensor_type;location;lat;lon;timestamp;temperature;humidity
68274;SHT30;55104;47.356;19.448;2023-09-19T00:00:15;21.82;67.11
68274;SHT30;55104;47.356;19.448;2023-09-19T00:03:17;21.74;67.49
68274;SHT30;55104;47.356;19.448;2023-09-19T00:06:20;21.65;67.78
68274;SHT30;55104;47.356;19.448;2023-09-19T00:09:22;21.64;68.04
68274;SHT30;55104;47.356;19.448;2023-09-19T00:12:26;21.54;67.99
68274;SHT30;55104;47.356;19.448;2023-09-19T00:15:29;21.47;68.59
68274;SHT30;55104;47.356;19.448;2023-09-19T00:18:32;21.44;68.58
68274;SHT30;55104;47.356;19.448;2023-09-19T00:21:36;21.47;68.52
68274;SHT30;55104;47.356;19.448;2023-09-19T00:24:39;21.39;68.71
68274;SHT30;55104;47.356;19.448;2023-09-19T00:27:42;21.39;68.85
68274;SHT30;55104;47.356;19.448;2023-09-19T00:30:46;21.36;69.17
68274;SHT30;55104;47.356;19.448;2023-09-19T00:33:57;21.33;69.19
68274;SHT30;55104;47.356;19.448;2023-09-19T00:37:01;21.30;69.31
68274;SHT30;55104;47.356;19.448;2023-09-19T00:40:04;21.18;69.53
68274;SHT30;55104;47.356;19.448;2023-09-19T00:43:07;21.16;69.65
68274;SHT30;55104;47.356;19.448;2023-09-19T00:46:10;21.13;69.99
68274;SHT30;55104;47.356;19.448;2023-09-19T00:49:13;21.07;70.31
68274;SHT30;55104;47.356;19.448;2023-09-19T00:52:17;21.00;70.51
68274;SHT30;55104;47.356;19.448;2023-09-19T00:55:23;21.00;70.60
68274;SHT30;55104;47.356;19.448;2023-09-19T00:58:26;21.05;70.59
68274;SHT30;55104;47.356;19.448;2023-09-19T01:01:35;21.02;70.62
68274;SHT30;55104;47.356;19.448;2023-09-19T01:04:38;20.99;70.91
68274;SHT30;55104;47.356;19.448;2023-09-19T01:07:41;21.05;70.70
68274;SHT30;55104;47.356;19.448;2023-09-19T01:10:55;20.99;70.87
68274;SHT30;55104;47.356;19.448;2023-09-19T01:14:16;20.99;71.07
68274;SHT30;55104;47.356;19.448;2023-09-19T01:17:46;20.99;71.03
68274;SHT30;55104;47.356;19.448;2023-09-19T01:21:05;21.07;70.88
68274;SHT30;55104;47.356;19.448;2023-09-19T01:31:11;21.18;70.49
68274;SHT30;55104;47.356;19.448;2023-09-19T01:34:13;21.27;70.18
68274;SHT30;55104;47.356;19.448;2023-09-19T01:37:17;21.37;70.15
68274;SHT30;55104;47.356;19.448;2023-09-19T01:40:22;21.44;69.90
68274;SHT30;55104;47.356;19.448;2023-09-19T01:43:35;21.48;69.69
68274;SHT30;55104;47.356;19.448;2023-09-19T01:46:41;21.53;69.74
68274;SHT30;55104;47.356;19.448;2023-09-19T01:49:53;21.51;69.68
68274;SHT30;55104;47.356;19.448;2023-09-19T01:53:15;21.48;69.80
68274;SHT30;55104;47.356;19.448;2023-09-19T01:56:25;21.51;69.68
68274;SHT30;55104;47.356;19.448;2023-09-19T01:59:39;21.48;69.68
68274;SHT30;55104;47.356;19.448;2023-09-19T02:02:45;21.44;69.88
68274;SHT30;55104;47.356;19.448;2023-09-19T02:05:53;21.48;69.44
68274;SHT30;55104;47.356;19.448;2023-09-19T02:08:56;21.48;69.70
68274;SHT30;55104;47.356;19.448;2023-09-19T02:11:58;21.41;69.83
68274;SHT30;55104;47.356;19.448;2023-09-19T02:15:01;21.33;70.14
68274;SHT30;55104;47.356;19.448;2023-09-19T02:18:04;21.33;70.21
68274;SHT30;55104;47.356;19.448;2023-09-19T02:21:06;21.29;70.26
68274;SHT30;55104;47.356;19.448;2023-09-19T02:24:08;21.37;70.03
68274;SHT30;55104;47.356;19.448;2023-09-19T02:27:11;21.36;69.95
68274;SHT30;55104;47.356;19.448;2023-09-19T02:30:14;21.29;70.60
68274;SHT30;55104;47.356;19.448;2023-09-19T02:33:17;21.27;70.41
68274;SHT30;55104;47.356;19.448;2023-09-19T02:36:20;21.33;70.50
68274;SHT30;55104;47.356;19.448;2023-09-19T02:39:23;21.27;70.64
68274;SHT30;55104;47.356;19.448;2023-09-19T02:42:25;21.26;70.61
68274;SHT30;55104;47.356;19.448;2023-09-19T02:45:28;21.27;70.67
68274;SHT30;55104;47.356;19.448;2023-09-19T02:48:31;21.26;70.73
68274;SHT30;55104;47.356;19.448;2023-09-19T02:51:34;21.27;70.56
68274;SHT30;55104;47.356;19.448;2023-09-19T02:54:37;21.22;70.85
68274;SHT30;55104;47.356;19.448;2023-09-19T02:57:40;21.16;71.11
68274;SHT30;55104;47.356;19.448;2023-09-19T03:00:45;21.05;71.39
68274;SHT30;55104;47.356;19.448;2023-09-19T03:03:52;21.05;71.23
68274;SHT30;55104;47.356;19.448;2023-09-19T03:06:55;21.00;71.40
68274;SHT30;55104;47.356;19.448;2023-09-19T03:10:02;20.98;71.36
68274;SHT30;55104;47.356;19.448;2023-09-19T03:13:05;20.88;71.78
68274;SHT30;55104;47.356;19.448;2023-09-19T03:16:11;20.84;71.75
68274;SHT30;55104;47.356;19.448;2023-09-19T03:19:14;20.86;71.66
68274;SHT30;55104;47.356;19.448;2023-09-19T03:22:17;20.75;72.01
68274;SHT30;55104;47.356;19.448;2023-09-19T03:25:20;20.76;72.00
68274;SHT30;55104;47.356;19.448;2023-09-19T03:28:26;20.68;72.23
68274;SHT30;55104;47.356;19.448;2023-09-19T03:31:32;20.57;72.42
68274;SHT30;55104;47.356;19.448;2023-09-19T03:34:36;20.57;72.52
68274;SHT30;55104;47.356;19.448;2023-09-19T03:37:40;20.48;72.74
68274;SHT30;55104;47.356;19.448;2023-09-19T03:40:43;20.45;72.83
68274;SHT30;55104;47.356;19.448;2023-09-19T03:43:46;20.50;72.73
68274;SHT30;55104;47.356;19.448;2023-09-19T03:46:48;20.43;72.94
68274;SHT30;55104;47.356;19.448;2023-09-19T03:49:50;20.33;73.09
68274;SHT30;55104;47.356;19.448;2023-09-19T03:52:57;20.24;73.45
68274;SHT30;55104;47.356;19.448;2023-09-19T03:56:00;20.24;73.46
68274;SHT30;55104;47.356;19.448;2023-09-19T03:59:06;20.23;73.48
68274;SHT30;55104;47.356;19.448;2023-09-19T04:02:10;20.08;74.12
68274;SHT30;55104;47.356;19.448;2023-09-19T04:05:25;20.06;74.10
68274;SHT30;55104;47.356;19.448;2023-09-19T04:08:27;20.05;74.05
68274;SHT30;55104;47.356;19.448;2023-09-19T04:11:30;19.99;74.31
68274;SHT30;55104;47.356;19.448;2023-09-19T04:14:32;19.96;74.46
68274;SHT30;55104;47.356;19.448;2023-09-19T04:17:34;19.95;74.64
68274;SHT30;55104;47.356;19.448;2023-09-19T04:20:37;19.95;74.59
68274;SHT30;55104;47.356;19.448;2023-09-19T04:23:39;19.97;74.54
68274;SHT30;55104;47.356;19.448;2023-09-19T04:26:42;20.00;74.59
68274;SHT30;55104;47.356;19.448;2023-09-19T04:29:45;20.03;74.64
68274;SHT30;55104;47.356;19.448;2023-09-19T04:32:47;19.93;74.72
68274;SHT30;55104;47.356;19.448;2023-09-19T04:35:53;20.00;74.79
68274;SHT30;55104;47.356;19.448;2023-09-19T04:38:55;20.00;74.77
68274;SHT30;55104;47.356;19.448;2023-09-19T04:41:57;20.00;75.04
68274;SHT30;55104;47.356;19.448;2023-09-19T04:45:00;19.97;75.23
68274;SHT30;55104;47.356;19.448;2023-09-19T04:48:03;19.99;75.24
68274;SHT30;55104;47.356;19.448;2023-09-19T04:51:05;20.09;75.06
68274;SHT30;55104;47.356;19.448;2023-09-19T04:54:07;20.09;75.14
68274;SHT30;55104;47.356;19.448;2023-09-19T04:57:09;20.13;75.25
68274;SHT30;55104;47.356;19.448;2023-09-19T05:00:17;20.16;75.29
68274;SHT30;55104;47.356;19.448;2023-09-19T05:03:21;20.20;75.33
68274;SHT30;55104;47.356;19.448;2023-09-19T05:06:24;20.24;75.18
68274;SHT30;55104;47.356;19.448;2023-09-19T05:09:28;20.26;75.11
68274;SHT30;55104;47.356;19.448;2023-09-19T05:12:34;20.17;75.71
68274;SHT30;55104;47.356;19.448;2023-09-19T05:15:39;20.21;75.63
68274;SHT30;55104;47.356;19.448;2023-09-19T05:18:42;20.13;76.04
68274;SHT30;55104;47.356;19.448;2023-09-19T05:21:44;20.20;75.98
68274;SHT30;55104;47.356;19.448;2023-09-19T05:24:46;20.23;76.05
68274;SHT30;55104;47.356;19.448;2023-09-19T05:27:53;20.30;76.01
68274;SHT30;55104;47.356;19.448;2023-09-19T05:30:55;20.41;75.72
68274;SHT30;55104;47.356;19.448;2023-09-19T05:33:58;20.45;76.14
68274;SHT30;55104;47.356;19.448;2023-09-19T05:37:03;20.50;76.01
68274;SHT30;55104;47.356;19.448;2023-09-19T05:40:05;20.61;75.87
68274;SHT30;55104;47.356;19.448;2023-09-19T05:43:09;20.65;75.86
68274;SHT30;55104;47.356;19.448;2023-09-19T05:46:11;20.67;76.10
68274;SHT30;55104;47.356;19.448;2023-09-19T05:49:14;20.72;76.06
68274;SHT30;55104;47.356;19.448;2023-09-19T05:52:18;20.79;76.02
68274;SHT30;55104;47.356;19.448;2023-09-19T05:55:21;20.82;76.21
68274;SHT30;55104;47.356;19.448;2023-09-19T05:58:26;21.00;76.11
68274;SHT30;55104;47.356;19.448;2023-09-19T06:01:32;20.98;76.60
68274;SHT30;55104;47.356;19.448;2023-09-19T06:04:36;20.93;77.25
68274;SHT30;55104;47.356;19.448;2023-09-19T06:07:40;21.02;77.25
68274;SHT30;55104;47.356;19.448;2023-09-19T06:10:44;21.18;77.25
68274;SHT30;55104;47.356;19.448;2023-09-19T06:13:49;21.41;76.67
68274;SHT30;55104;47.356;19.448;2023-09-19T06:16:53;21.36;77.14
68274;SHT30;55104;47.356;19.448;2023-09-19T06:19:56;21.46;76.89
68274;SHT30;55104;47.356;19.448;2023-09-19T06:22:59;21.54;76.81
68274;SHT30;55104;47.356;19.448;2023-09-19T06:26:04;21.51;76.07
68274;SHT30;55104;47.356;19.448;2023-09-19T06:29:08;21.44;76.43
68274;SHT30;55104;47.356;19.448;2023-09-19T06:32:12;21.41;76.66
68274;SHT30;55104;47.356;19.448;2023-09-19T06:35:15;21.12;77.41
68274;SHT30;55104;47.356;19.448;2023-09-19T06:38:18;21.03;77.37
68274;SHT30;55104;47.356;19.448;2023-09-19T06:41:21;20.89;78.22
68274;SHT30;55104;47.356;19.448;2023-09-19T06:44:27;20.85;77.81
68274;SHT30;55104;47.356;19.448;2023-09-19T06:47:31;20.64;78.12
68274;SHT30;55104;47.356;19.448;2023-09-19T06:50:35;20.74;78.21
68274;SHT30;55104;47.356;19.448;2023-09-19T06:53:38;20.63;78.57
68274;SHT30;55104;47.356;19.448;2023-09-19T06:56:42;20.57;78.12
68274;SHT30;55104;47.356;19.448;2023-09-19T06:59:45;20.52;78.23
68274;SHT30;55104;47.356;19.448;2023-09-19T07:02:58;20.45;77.81
68274;SHT30;55104;47.356;19.448;2023-09-19T07:06:03;20.55;77.47
68274;SHT30;55104;47.356;19.448;2023-09-19T07:09:06;20.54;77.43
68274;SHT30;55104;47.356;19.448;2023-09-19T07:12:10;20.31;78.38
68274;SHT30;55104;47.356;19.448;2023-09-19T07:15:13;20.09;78.79
68274;SHT30;55104;47.356;19.448;2023-09-19T07:18:18;19.86;79.04
68274;SHT30;55104;47.356;19.448;2023-09-19T07:21:22;19.74;79.59
68274;SHT30;55104;47.356;19.448;2023-09-19T07:24:25;19.59;80.20
68274;SHT30;55104;47.356;19.448;2023-09-19T07:27:28;19.54;80.62
68274;SHT30;55104;47.356;19.448;2023-09-19T07:30:31;19.57;80.87
68274;SHT30;55104;47.356;19.448;2023-09-19T07:33:33;19.44;81.75
68274;SHT30;55104;47.356;19.448;2023-09-19T07:36:35;19.41;82.18
68274;SHT30;55104;47.356;19.448;2023-09-19T07:39:39;19.43;82.72
68274;SHT30;55104;47.356;19.448;2023-09-19T07:42:43;19.47;82.72
68274;SHT30;55104;47.356;19.448;2023-09-19T07:45:46;19.37;82.93
68274;SHT30;55104;47.356;19.448;2023-09-19T07:48:49;19.47;82.88
68274;SHT30;55104;47.356;19.448;2023-09-19T07:51:51;19.37;83.41
68274;SHT30;55104;47.356;19.448;2023-09-19T07:54:55;19.14;84.82
68274;SHT30;55104;47.356;19.448;2023-09-19T07:57:59;19.04;85.51
68274;SHT30;55104;47.356;19.448;2023-09-19T08:01:09;19.09;85.96
68274;SHT30;55104;47.356;19.448;2023-09-19T08:04:12;19.16;85.99
68274;SHT30;55104;47.356;19.448;2023-09-19T08:07:15;19.19;86.50
68274;SHT30;55104;47.356;19.448;2023-09-19T08:10:18;19.13;86.63
68274;SHT30;55104;47.356;19.448;2023-09-19T08:13:25;19.21;87.01
68274;SHT30;55104;47.356;19.448;2023-09-19T08:16:27;19.09;86.90
68274;SHT30;55104;47.356;19.448;2023-09-19T08:19:30;19.13;87.26
68274;SHT30;55104;47.356;19.448;2023-09-19T08:22:34;19.20;87.30
68274;SHT30;55104;47.356;19.448;2023-09-19T08:25:37;19.50;87.13
68274;SHT30;55104;47.356;19.448;2023-09-19T08:28:40;19.23;87.92
68274;SHT30;55104;47.356;19.448;2023-09-19T08:31:42;19.14;88.28
68274;SHT30;55104;47.356;19.448;2023-09-19T08:34:45;19.23;88.28
68274;SHT30;55104;47.356;19.448;2023-09-19T08:37:47;19.32;88.36
68274;SHT30;55104;47.356;19.448;2023-09-19T08:40:50;19.44;87.63
68274;SHT30;55104;47.356;19.448;2023-09-19T08:43:52;19.41;87.40
68274;SHT30;55104;47.356;19.448;2023-09-19T08:46:57;19.61;87.06
68274;SHT30;55104;47.356;19.448;2023-09-19T08:57:06;19.72;85.40
68274;SHT30;55104;47.356;19.448;2023-09-19T09:00:13;19.76;84.68
68274;SHT30;55104;47.356;19.448;2023-09-19T09:03:18;19.86;84.46
68274;SHT30;55104;47.356;19.448;2023-09-19T09:06:23;20.03;83.59
68274;SHT30;55104;47.356;19.448;2023-09-19T09:09:26;20.29;84.00
68274;SHT30;55104;47.356;19.448;2023-09-19T09:12:30;19.87;85.10
68274;SHT30;55104;47.356;19.448;2023-09-19T09:15:36;19.71;85.89
68274;SHT30;55104;47.356;19.448;2023-09-19T09:18:38;19.74;86.51
68274;SHT30;55104;47.356;19.448;2023-09-19T09:21:40;19.90;86.44
68274;SHT30;55104;47.356;19.448;2023-09-19T09:24:56;19.93;85.89
68274;SHT30;55104;47.356;19.448;2023-09-19T09:28:06;20.08;86.05
68274;SHT30;55104;47.356;19.448;2023-09-19T09:31:22;19.81;85.60
68274;SHT30;55104;47.356;19.448;2023-09-19T09:34:33;19.79;86.52
68274;SHT30;55104;47.356;19.448;2023-09-19T09:37:35;19.69;86.28
68274;SHT30;55104;47.356;19.448;2023-09-19T09:40:50;19.85;86.03
68274;SHT30;55104;47.356;19.448;2023-09-19T09:44:13;19.95;86.02
68274;SHT30;55104;47.356;19.448;2023-09-19T09:50:52;19.83;85.65
68274;SHT30;55104;47.356;19.448;2023-09-19T09:54:11;19.90;84.64
68274;SHT30;55104;47.356;19.448;2023-09-19T09:57:14;20.38;85.48
68274;SHT30;55104;47.356;19.448;2023-09-19T10:00:19;20.72;83.82
68274;SHT30;55104;47.356;19.448;2023-09-19T10:03:37;20.84;82.22
68274;SHT30;55104;47.356;19.448;2023-09-19T10:06:46;21.13;83.11
68274;SHT30;55104;47.356;19.448;2023-09-19T10:09:55;21.37;82.11
68274;SHT30;55104;47.356;19.448;2023-09-19T10:13:14;21.34;81.32
68274;SHT30;55104;47.356;19.448;2023-09-19T10:16:21;21.27;80.92
68274;SHT30;55104;47.356;19.448;2023-09-19T10:19:30;21.41;81.15
68274;SHT30;55104;47.356;19.448;2023-09-19T10:22:37;21.47;79.57
68274;SHT30;55104;47.356;19.448;2023-09-19T10:25:42;21.61;80.09
68274;SHT30;55104;47.356;19.448;2023-09-19T10:28:46;21.62;79.63
68274;SHT30;55104;47.356;19.448;2023-09-19T10:31:52;21.47;79.31
68274;SHT30;55104;47.356;19.448;2023-09-19T10:34:56;21.62;77.98
68274;SHT30;55104;47.356;19.448;2023-09-19T10:38:01;21.61;77.87
68274;SHT30;55104;47.356;19.448;2023-09-19T10:41:05;21.86;78.14
68274;SHT30;55104;47.356;19.448;2023-09-19T10:44:07;22.16;77.31
68274;SHT30;55104;47.356;19.448;2023-09-19T10:47:11;22.46;75.47
68274;SHT30;55104;47.356;19.448;2023-09-19T10:50:21;22.37;75.77
68274;SHT30;55104;47.356;19.448;2023-09-19T10:53:24;22.12;75.79
68274;SHT30;55104;47.356;19.448;2023-09-19T10:56:32;22.44;75.90
68274;SHT30;55104;47.356;19.448;2023-09-19T11:00:03;22.14;75.36
68274;SHT30;55104;47.356;19.448;2023-09-19T11:03:29;22.08;76.22
68274;SHT30;55104;47.356;19.448;2023-09-19T11:06:32;21.82;76.22
68274;SHT30;55104;47.356;19.448;2023-09-19T11:09:56;21.74;77.04
68274;SHT30;55104;47.356;19.448;2023-09-19T11:13:29;21.71;76.93
68274;SHT30;55104;47.356;19.448;2023-09-19T11:16:37;21.48;77.48
68274;SHT30;55104;47.356;19.448;2023-09-19T11:23:17;22.02;75.27
68274;SHT30;55104;47.356;19.448;2023-09-19T11:26:40;22.29;73.71
68274;SHT30;55104;47.356;19.448;2023-09-19T11:29:45;22.64;73.03
68274;SHT30;55104;47.356;19.448;2023-09-19T11:33:15;23.04;71.80
68274;SHT30;55104;47.356;19.448;2023-09-19T11:36:34;22.91;72.73
68274;SHT30;55104;47.356;19.448;2023-09-19T11:39:38;22.84;72.61
68274;SHT30;55104;47.356;19.448;2023-09-19T11:42:45;22.56;72.26
68274;SHT30;55104;47.356;19.448;2023-09-19T11:49:07;22.13;74.37
68274;SHT30;55104;47.356;19.448;2023-09-19T11:52:12;22.22;73.60
68274;SHT30;55104;47.356;19.448;2023-09-19T11:55:25;22.81;72.54
68274;SHT30;55104;47.356;19.448;2023-09-19T11:58:33;23.26;70.82
68274;SHT30;55104;47.356;19.448;2023-09-19T12:01:38;22.98;69.74
68274;SHT30;55104;47.356;19.448;2023-09-19T12:04:43;23.24;69.32
68274;SHT30;55104;47.356;19.448;2023-09-19T12:07:47;23.39;67.15
68274;SHT30;55104;47.356;19.448;2023-09-19T12:10:50;23.30;67.06
68274;SHT30;55104;47.356;19.448;2023-09-19T12:13:59;23.33;67.23
68274;SHT30;55104;47.356;19.448;2023-09-19T12:17:03;23.42;66.97
68274;SHT30;55104;47.356;19.448;2023-09-19T12:20:06;23.29;67.18
68274;SHT30;55104;47.356;19.448;2023-09-19T12:23:18;23.18;68.03
68274;SHT30;55104;47.356;19.448;2023-09-19T12:26:21;23.36;67.88
68274;SHT30;55104;47.356;19.448;2023-09-19T12:29:26;23.61;67.64
68274;SHT30;55104;47.356;19.448;2023-09-19T12:32:36;24.05;66.36
68274;SHT30;55104;47.356;19.448;2023-09-19T12:35:38;24.19;65.51
68274;SHT30;55104;47.356;19.448;2023-09-19T12:38:47;24.30;63.63
68274;SHT30;55104;47.356;19.448;2023-09-19T12:41:52;24.49;62.85
68274;SHT30;55104;47.356;19.448;2023-09-19T12:44:55;24.33;62.89
68274;SHT30;55104;47.356;19.448;2023-09-19T12:48:22;24.14;62.45
68274;SHT30;55104;47.356;19.448;2023-09-19T12:51:36;24.01;62.57
68274;SHT30;55104;47.356;19.448;2023-09-19T12:54:42;24.23;63.05
68274;SHT30;55104;47.356;19.448;2023-09-19T12:58:13;24.09;63.32
68274;SHT30;55104;47.356;19.448;2023-09-19T13:01:17;23.97;64.37
68274;SHT30;55104;47.356;19.448;2023-09-19T13:04:21;24.09;64.50
68274;SHT30;55104;47.356;19.448;2023-09-19T13:07:44;24.53;63.33
68274;SHT30;55104;47.356;19.448;2023-09-19T13:14:25;24.83;63.17
68274;SHT30;55104;47.356;19.448;2023-09-19T13:17:43;24.80;63.02
68274;SHT30;55104;47.356;19.448;2023-09-19T13:21:05;24.44;63.65
68274;SHT30;55104;47.356;19.448;2023-09-19T13:24:23;24.36;64.41
68274;SHT30;55104;47.356;19.448;2023-09-19T13:27:28;24.49;64.06
68274;SHT30;55104;47.356;19.448;2023-09-19T13:30:31;24.19;64.17
68274;SHT30;55104;47.356;19.448;2023-09-19T13:33:33;24.14;64.96
68274;SHT30;55104;47.356;19.448;2023-09-19T13:36:36;23.93;64.97
68274;SHT30;55104;47.356;19.448;2023-09-19T13:39:39;23.73;64.71
68274;SHT30;55104;47.356;19.448;2023-09-19T13:42:49;23.60;63.92
68274;SHT30;55104;47.356;19.448;2023-09-19T13:45:56;23.78;64.68
68274;SHT30;55104;47.356;19.448;2023-09-19T13:48:59;23.98;64.52
68274;SHT30;55104;47.356;19.448;2023-09-19T13:52:04;24.26;63.09
68274;SHT30;55104;47.356;19.448;2023-09-19T13:55:07;24.32;62.35
68274;SHT30;55104;47.356;19.448;2023-09-19T13:58:09;24.52;62.78
68274;SHT30;55104;47.356;19.448;2023-09-19T14:01:13;24.35;62.52
68274;SHT30;55104;47.356;19.448;2023-09-19T14:04:19;24.22;62.63
68274;SHT30;55104;47.356;19.448;2023-09-19T14:07:21;24.23;62.48
68274;SHT30;55104;47.356;19.448;2023-09-19T14:10:23;24.08;62.62
68274;SHT30;55104;47.356;19.448;2023-09-19T14:13:26;23.75;64.03
68274;SHT30;55104;47.356;19.448;2023-09-19T14:16:28;23.49;63.92
68274;SHT30;55104;47.356;19.448;2023-09-19T14:19:33;23.24;64.27
68274;SHT30;55104;47.356;19.448;2023-09-19T14:22:37;23.45;64.49
68274;SHT30;55104;47.356;19.448;2023-09-19T14:25:40;23.68;64.29
68274;SHT30;55104;47.356;19.448;2023-09-19T14:28:43;23.93;63.10
68274;SHT30;55104;47.356;19.448;2023-09-19T14:31:46;23.82;62.80
68274;SHT30;55104;47.356;19.448;2023-09-19T14:34:49;23.84;62.94
68274;SHT30;55104;47.356;19.448;2023-09-19T14:37:51;23.98;62.26
68274;SHT30;55104;47.356;19.448;2023-09-19T14:41:01;23.98;62.29
68274;SHT30;55104;47.356;19.448;2023-09-19T14:44:04;23.95;62.10
68274;SHT30;55104;47.356;19.448;2023-09-19T14:47:07;23.95;61.26
68274;SHT30;55104;47.356;19.448;2023-09-19T14:50:09;23.88;61.03
68274;SHT30;55104;47.356;19.448;2023-09-19T14:53:13;23.81;61.57
68274;SHT30;55104;47.356;19.448;2023-09-19T14:56:16;23.75;61.95
68274;SHT30;55104;47.356;19.448;2023-09-19T14:59:20;23.73;62.01
68274;SHT30;55104;47.356;19.448;2023-09-19T15:02:23;23.66;62.30
68274;SHT30;55104;47.356;19.448;2023-09-19T15:05:25;23.45;63.14
68274;SHT30;55104;47.356;19.448;2023-09-19T15:08:28;23.56;63.34
68274;SHT30;55104;47.356;19.448;2023-09-19T15:11:30;23.47;63.45
68274;SHT30;55104;47.356;19.448;2023-09-19T15:14:32;23.50;63.60
68274;SHT30;55104;47.356;19.448;2023-09-19T15:17:35;23.42;64.28
68274;SHT30;55104;47.356;19.448;2023-09-19T15:20:44;23.46;64.48
68274;SHT30;55104;47.356;19.448;2023-09-19T15:23:46;23.46;64.92
68274;SHT30;55104;47.356;19.448;2023-09-19T15:26:48;23.45;64.19
68274;SHT30;55104;47.356;19.448;2023-09-19T15:29:52;23.32;63.83
68274;SHT30;55104;47.356;19.448;2023-09-19T15:32:54;23.27;64.08
68274;SHT30;55104;47.356;19.448;2023-09-19T15:36:07;23.30;63.74
68274;SHT30;55104;47.356;19.448;2023-09-19T15:39:10;23.23;64.45
68274;SHT30;55104;47.356;19.448;2023-09-19T15:42:13;23.13;65.04
68274;SHT30;55104;47.356;19.448;2023-09-19T15:45:18;23.06;65.19
68274;SHT30;55104;47.356;19.448;2023-09-19T15:48:21;23.05;65.31
68274;SHT30;55104;47.356;19.448;2023-09-19T15:51:24;22.90;65.54
68274;SHT30;55104;47.356;19.448;2023-09-19T15:54:26;22.94;65.60
68274;SHT30;55104;47.356;19.448;2023-09-19T15:57:29;22.85;65.91
68274;SHT30;55104;47.356;19.448;2023-09-19T16:00:33;22.77;66.38
68274;SHT30;55104;47.356;19.448;2023-09-19T16:03:39;22.58;66.99
68274;SHT30;55104;47.356;19.448;2023-09-19T16:06:42;22.63;67.45
68274;SHT30;55104;47.356;19.448;2023-09-19T16:09:44;22.54;67.07
68274;SHT30;55104;47.356;19.448;2023-09-19T16:12:46;22.49;67.35
68274;SHT30;55104;47.356;19.448;2023-09-19T16:15:48;22.35;67.60
68274;SHT30;55104;47.356;19.448;2023-09-19T16:18:58;22.24;67.87
68274;SHT30;55104;47.356;19.448;2023-09-19T16:22:03;22.19;67.64
68274;SHT30;55104;47.356;19.448;2023-09-19T16:25:07;22.12;67.48
68274;SHT30;55104;47.356;19.448;2023-09-19T16:28:13;21.89;67.92
68274;SHT30;55104;47.356;19.448;2023-09-19T16:31:15;21.77;68.66
68274;SHT30;55104;47.356;19.448;2023-09-19T16:34:21;21.74;68.40
68274;SHT30;55104;47.356;19.448;2023-09-19T16:37:23;21.71;68.16
68274;SHT30;55104;47.356;19.448;2023-09-19T16:40:26;21.68;68.17
68274;SHT30;55104;47.356;19.448;2023-09-19T16:43:28;21.53;68.57
68274;SHT30;55104;47.356;19.448;2023-09-19T16:46:30;21.46;68.64
68274;SHT30;55104;47.356;19.448;2023-09-19T16:49:33;21.40;68.96
68274;SHT30;55104;47.356;19.448;2023-09-19T16:52:35;21.34;68.93
68274;SHT30;55104;47.356;19.448;2023-09-19T16:55:37;21.20;69.59
68274;SHT30;55104;47.356;19.448;2023-09-19T16:58:45;21.03;69.96
68274;SHT30;55104;47.356;19.448;2023-09-19T17:01:48;20.89;70.75
68274;SHT30;55104;47.356;19.448;2023-09-19T17:04:50;20.75;71.22
68274;SHT30;55104;47.356;19.448;2023-09-19T17:07:53;20.63;71.82
68274;SHT30;55104;47.356;19.448;2023-09-19T17:11:06;20.48;72.36
68274;SHT30;55104;47.356;19.448;2023-09-19T17:14:10;20.33;73.16
68274;SHT30;55104;47.356;19.448;2023-09-19T17:17:13;20.17;73.68
68274;SHT30;55104;47.356;19.448;2023-09-19T17:20:15;20.05;74.44
68274;SHT30;55104;47.356;19.448;2023-09-19T17:23:17;19.90;74.84
68274;SHT30;55104;47.356;19.448;2023-09-19T17:26:19;19.79;75.43
68274;SHT30;55104;47.356;19.448;2023-09-19T17:29:27;19.66;75.84
68274;SHT30;55104;47.356;19.448;2023-09-19T17:32:30;19.59;76.35
68274;SHT30;55104;47.356;19.448;2023-09-19T17:35:32;19.53;76.49
68274;SHT30;55104;47.356;19.448;2023-09-19T17:38:38;19.40;77.26
68274;SHT30;55104;47.356;19.448;2023-09-19T17:41:41;19.32;77.68
68274;SHT30;55104;47.356;19.448;2023-09-19T17:44:44;19.21;77.61
68274;SHT30;55104;47.356;19.448;2023-09-19T17:47:47;19.17;77.86
68274;SHT30;55104;47.356;19.448;2023-09-19T17:50:59;19.13;78.04
68274;SHT30;55104;47.356;19.448;2023-09-19T17:54:03;19.10;78.03
68274;SHT30;55104;47.356;19.448;2023-09-19T17:57:07;19.02;78.34
68274;SHT30;55104;47.356;19.448;2023-09-19T18:00:11;18.92;78.77
68274;SHT30;55104;47.356;19.448;2023-09-19T18:03:15;18.86;79.17
68274;SHT30;55104;47.356;19.448;2023-09-19T18:06:18;18.82;79.31
68274;SHT30;55104;47.356;19.448;2023-09-19T18:09:22;18.76;79.79
68274;SHT30;55104;47.356;19.448;2023-09-19T18:12:25;18.73;79.74
68274;SHT30;55104;47.356;19.448;2023-09-19T18:15:29;18.66;80.34
68274;SHT30;55104;47.356;19.448;2023-09-19T18:18:36;18.56;80.48
68274;SHT30;55104;47.356;19.448;2023-09-19T18:21:39;18.47;80.62
68274;SHT30;55104;47.356;19.448;2023-09-19T18:24:48;18.37;80.95
68274;SHT30;55104;47.356;19.448;2023-09-19T18:27:51;18.36;81.18
68274;SHT30;55104;47.356;19.448;2023-09-19T18:30:54;18.34;81.26
68274;SHT30;55104;47.356;19.448;2023-09-19T18:33:59;18.21;81.28
68274;SHT30;55104;47.356;19.448;2023-09-19T18:37:03;18.11;81.80
68274;SHT30;55104;47.356;19.448;2023-09-19T18:40:06;18.11;81.95
68274;SHT30;55104;47.356;19.448;2023-09-19T18:43:12;18.01;82.40
68274;SHT30;55104;47.356;19.448;2023-09-19T18:46:18;17.92;82.58
68274;SHT30;55104;47.356;19.448;2023-09-19T18:49:20;17.86;82.49
68274;SHT30;55104;47.356;19.448;2023-09-19T18:52:25;17.81;82.69
68274;SHT30;55104;47.356;19.448;2023-09-19T18:55:27;17.71;82.80
68274;SHT30;55104;47.356;19.448;2023-09-19T18:58:29;17.61;83.16
68274;SHT30;55104;47.356;19.448;2023-09-19T19:01:32;17.52;83.47
68274;SHT30;55104;47.356;19.448;2023-09-19T19:04:36;17.49;83.57
68274;SHT30;55104;47.356;19.448;2023-09-19T19:07:41;17.38;83.83
68274;SHT30;55104;47.356;19.448;2023-09-19T19:10:43;17.38;84.06
68274;SHT30;55104;47.356;19.448;2023-09-19T19:13:45;17.30;84.17
68274;SHT30;55104;47.356;19.448;2023-09-19T19:16:50;17.26;84.19
68274;SHT30;55104;47.356;19.448;2023-09-19T19:19:53;17.21;84.68
68274;SHT30;55104;47.356;19.448;2023-09-19T19:22:55;17.14;84.71
68274;SHT30;55104;47.356;19.448;2023-09-19T19:25:58;17.02;85.11
68274;SHT30;55104;47.356;19.448;2023-09-19T19:29:01;16.83;85.63
68274;SHT30;55104;47.356;19.448;2023-09-19T19:32:04;16.86;85.45
68274;SHT30;55104;47.356;19.448;2023-09-19T19:35:07;16.83;85.38
68274;SHT30;55104;47.356;19.448;2023-09-19T19:38:09;16.77;85.49